sensor_id;sensor_type;location;lat;lon;timestamp;temperature;humidity
29003;DHT22;16102;57.138;-2.118;2023-04-24T05:01:56;5.00;1.00
29003;DHT22;16102;57.138;-2.118;2023-04-24T05:04:23;5.00;1.00
29003;DHT22;16102;57.138;-2.118;2023-04-24T05:06:51;5.10;1.00
29003;DHT22;16102;57.138;-2.118;2023-04-24T05:09:18;5.00;1.00
29003;DHT22;16102;57.138;-2.118;2023-04-24T05:11:45;4.70;1.00
29003;DHT22;16102;57.138;-2.118;2023-04-24T05:14:12;4.50;1.00
29003;DHT22;16102;57.138;-2.118;2023-04-24T05:16:39;4.40;1.00
29003;DHT22;16102;57.138;-2.118;2023-04-24T05:19:07;4.30;1.00
29003;DHT22;16102;57.138;-2.118;2023-04-24T05:21:34;4.10;1.00
29003;DHT22;16102;57.138;-2.118;2023-04-24T05:24:00;4.10;1.00
29003;DHT22;16102;57.138;-2.118;2023-04-24T05:26:27;4.10;1.00
29003;DHT22;16102;57.138;-2.118;2023-04-24T05:28:54;4.20;1.00
29003;DHT22;16102;57.138;-2.118;2023-04-24T05:31:21;4.20;1.00
29003;DHT22;16102;57.138;-2.118;2023-04-24T05:33:48;4.20;1.00
29003;DHT22;16102;57.138;-2.118;2023-04-24T05:36:15;4.20;1.00
29003;DHT22;16102;57.138;-2.118;2023-04-24T05:38:42;4.30;1.00
29003;DHT22;16102;57.138;-2.118;2023-04-24T05:41:09;4.30;1.00
29003;DHT22;16102;57.138;-2.118;2023-04-24T05:43:36;4.40;1.00
29003;DHT22;16102;57.138;-2.118;2023-04-24T05:46:03;4.40;1.00
29003;DHT22;16102;57.138;-2.118;2023-04-24T05:48:30;4.40;1.00
29003;DHT22;16102;57.138;-2.118;2023-04-24T05:50:57;4.50;1.00
29003;DHT22;16102;57.138;-2.118;2023-04-24T05:53:24;4.50;1.00
29003;DHT22;16102;57.138;-2.118;2023-04-24T05:55:51;4.50;1.00
29003;DHT22;16102;57.138;-2.118;2023-04-24T05:58:18;4.50;1.00
29003;DHT22;16102;57.138;-2.118;2023-04-24T06:00:45;4.60;1.00
29003;DHT22;16102;57.138;-2.118;2023-04-24T06:03:14;4.60;1.00
29003;DHT22;16102;57.138;-2.118;2023-04-24T06:05:41;4.60;1.00
29003;DHT22;16102;57.138;-2.118;2023-04-24T06:08:09;4.70;1.00
29003;DHT22;16102;57.138;-2.118;2023-04-24T06:10:36;4.80;1.00
29003;DHT22;16102;57.138;-2.118;2023-04-24T06:13:03;4.90;1.00
29003;DHT22;16102;57.138;-2.118;2023-04-24T06:15:30;4.90;1.00
29003;DHT22;16102;57.138;-2.118;2023-04-24T06:17:57;4.80;1.00
29003;DHT22;16102;57.138;-2.118;2023-04-24T06:20:25;4.70;1.00
29003;DHT22;16102;57.138;-2.118;2023-04-24T06:22:52;4.50;1.00
29003;DHT22;16102;57.138;-2.118;2023-04-24T06:25:19;4.50;1.00
29003;DHT22;16102;57.138;-2.118;2023-04-24T06:27:46;4.50;1.00
29003;DHT22;16102;57.138;-2.118;2023-04-24T06:30:13;4.50;1.00
29003;DHT22;16102;57.138;-2.118;2023-04-24T06:32:40;4.60;1.00
29003;DHT22;16102;57.138;-2.118;2023-04-24T06:35:07;4.70;1.00
29003;DHT22;16102;57.138;-2.118;2023-04-24T06:37:36;4.70;1.00
29003;DHT22;16102;57.138;-2.118;2023-04-24T06:40:03;4.80;1.00
29003;DHT22;16102;57.138;-2.118;2023-04-24T06:42:34;4.80;1.00
29003;DHT22;16102;57.138;-2.118;2023-04-24T06:45:02;4.80;1.00
29003;DHT22;16102;57.138;-2.118;2023-04-24T06:47:29;4.70;1.00
29003;DHT22;16102;57.138;-2.118;2023-04-24T06:49:57;4.70;1.00
29003;DHT22;16102;57.138;-2.118;2023-04-24T06:52:24;4.70;1.00
29003;DHT22;16102;57.138;-2.118;2023-04-24T06:54:51;4.80;1.00
29003;DHT22;16102;57.138;-2.118;2023-04-24T06:57:18;4.80;1.00
29003;DHT22;16102;57.138;-2.118;2023-04-24T06:59:46;4.70;1.00
29003;DHT22;16102;57.138;-2.118;2023-04-24T07:02:13;4.70;1.00
29003;DHT22;16102;57.138;-2.118;2023-04-24T07:04:40;4.80;1.00
29003;DHT22;16102;57.138;-2.118;2023-04-24T07:07:08;4.80;1.00
29003;DHT22;16102;57.138;-2.118;2023-04-24T07:09:40;4.80;1.00
29003;DHT22;16102;57.138;-2.118;2023-04-24T07:12:11;4.80;1.00
29003;DHT22;16102;57.138;-2.118;2023-04-24T07:14:39;4.90;1.00
29003;DHT22;16102;57.138;-2.118;2023-04-24T07:17:06;4.90;1.00
29003;DHT22;16102;57.138;-2.118;2023-04-24T07:19:33;5.00;1.00
29003;DHT22;16102;57.138;-2.118;2023-04-24T07:22:02;5.00;1.00
29003;DHT22;16102;57.138;-2.118;2023-04-24T07:24:30;5.00;1.00
29003;DHT22;16102;57.138;-2.118;2023-04-24T07:26:59;5.10;1.00
29003;DHT22;16102;57.138;-2.118;2023-04-24T07:29:27;5.20;1.00
29003;DHT22;16102;57.138;-2.118;2023-04-24T07:31:54;5.30;1.00
29003;DHT22;16102;57.138;-2.118;2023-04-24T07:34:21;5.40;1.00
29003;DHT22;16102;57.138;-2.118;2023-04-24T07:36:48;5.40;1.00
29003;DHT22;16102;57.138;-2.118;2023-04-24T07:39:15;5.50;1.00
29003;DHT22;16102;57.138;-2.118;2023-04-24T07:41:42;5.60;1.00
29003;DHT22;16102;57.138;-2.118;2023-04-24T07:44:09;5.60;1.00
29003;DHT22;16102;57.138;-2.118;2023-04-24T07:46:36;5.60;1.00
29003;DHT22;16102;57.138;-2.118;2023-04-24T07:49:04;5.70;1.00
29003;DHT22;16102;57.138;-2.118;2023-04-24T07:51:40;5.80;1.00
29003;DHT22;16102;57.138;-2.118;2023-04-24T07:54:08;6.00;1.00
29003;DHT22;16102;57.138;-2.118;2023-04-24T07:56:35;6.10;1.00
29003;DHT22;16102;57.138;-2.118;2023-04-24T07:59:06;6.20;1.00
29003;DHT22;16102;57.138;-2.118;2023-04-24T08:01:33;6.30;1.00
29003;DHT22;16102;57.138;-2.118;2023-04-24T08:03:59;6.50;1.00
29003;DHT22;16102;57.138;-2.118;2023-04-24T08:06:27;6.50;1.00
29003;DHT22;16102;57.138;-2.118;2023-04-24T08:08:57;6.60;1.00
29003;DHT22;16102;57.138;-2.118;2023-04-24T08:11:25;6.70;1.00
29003;DHT22;16102;57.138;-2.118;2023-04-24T08:13:52;6.70;1.00
29003;DHT22;16102;57.138;-2.118;2023-04-24T08:16:19;6.90;1.00
29003;DHT22;16102;57.138;-2.118;2023-04-24T08:18:46;7.10;1.00
29003;DHT22;16102;57.138;-2.118;2023-04-24T08:21:13;7.20;1.00
29003;DHT22;16102;57.138;-2.118;2023-04-24T08:23:44;7.20;1.00
29003;DHT22;16102;57.138;-2.118;2023-04-24T08:26:12;7.10;1.00
29003;DHT22;16102;57.138;-2.118;2023-04-24T08:28:39;7.10;1.00
29003;DHT22;16102;57.138;-2.118;2023-04-24T08:31:06;6.90;1.00
29003;DHT22;16102;57.138;-2.118;2023-04-24T08:33:34;7.00;1.00
29003;DHT22;16102;57.138;-2.118;2023-04-24T08:36:05;7.10;1.00
29003;DHT22;16102;57.138;-2.118;2023-04-24T08:38:32;7.10;1.00
29003;DHT22;16102;57.138;-2.118;2023-04-24T08:41:00;7.10;1.00
29003;DHT22;16102;57.138;-2.118;2023-04-24T08:43:28;7.20;1.00
29003;DHT22;16102;57.138;-2.118;2023-04-24T08:45:55;7.40;1.00
29003;DHT22;16102;57.138;-2.118;2023-04-24T08:48:23;7.40;1.00
29003;DHT22;16102;57.138;-2.118;2023-04-24T08:50:58;7.50;1.00
29003;DHT22;16102;57.138;-2.118;2023-04-24T08:53:26;7.40;1.00
29003;DHT22;16102;57.138;-2.118;2023-04-24T08:55:55;7.20;1.00
29003;DHT22;16102;57.138;-2.118;2023-04-24T08:58:25;7.00;1.00
29003;DHT22;16102;57.138;-2.118;2023-04-24T09:00:57;6.80;99.90
29003;DHT22;16102;57.138;-2.118;2023-04-24T09:03:27;6.90;99.90
29003;DHT22;16102;57.138;-2.118;2023-04-24T09:05:55;6.90;99.90
29003;DHT22;16102;57.138;-2.118;2023-04-24T09:08:25;6.90;99.90
29003;DHT22;16102;57.138;-2.118;2023-04-24T09:10:52;6.90;99.90
29003;DHT22;16102;57.138;-2.118;2023-04-24T09:13:20;6.90;99.90
29003;DHT22;16102;57.138;-2.118;2023-04-24T09:15:47;7.10;99.90
29003;DHT22;16102;57.138;-2.118;2023-04-24T09:18:14;7.10;99.90
29003;DHT22;16102;57.138;-2.118;2023-04-24T09:21:00;7.30;99.90
29003;DHT22;16102;57.138;-2.118;2023-04-24T09:23:29;7.60;99.90
29003;DHT22;16102;57.138;-2.118;2023-04-24T09:25:57;7.50;99.90
29003;DHT22;16102;57.138;-2.118;2023-04-24T09:28:26;7.60;99.90
29003;DHT22;16102;57.138;-2.118;2023-04-24T09:31:11;7.50;99.90
29003;DHT22;16102;57.138;-2.118;2023-04-24T09:33:40;7.30;99.90
29003;DHT22;16102;57.138;-2.118;2023-04-24T09:36:19;7.30;99.90
29003;DHT22;16102;57.138;-2.118;2023-04-24T09:38:57;7.30;99.90
29003;DHT22;16102;57.138;-2.118;2023-04-24T09:41:26;7.30;99.90
29003;DHT22;16102;57.138;-2.118;2023-04-24T09:43:54;7.20;99.90
29003;DHT22;16102;57.138;-2.118;2023-04-24T09:46:29;7.30;99.90
29003;DHT22;16102;57.138;-2.118;2023-04-24T09:48:57;7.40;99.90
29003;DHT22;16102;57.138;-2.118;2023-04-24T09:51:34;7.50;99.90
29003;DHT22;16102;57.138;-2.118;2023-04-24T09:54:22;7.40;99.90
29003;DHT22;16102;57.138;-2.118;2023-04-24T09:56:50;7.30;99.90
29003;DHT22;16102;57.138;-2.118;2023-04-24T09:59:18;7.40;99.90
29003;DHT22;16102;57.138;-2.118;2023-04-24T10:01:46;7.50;99.90
29003;DHT22;16102;57.138;-2.118;2023-04-24T10:04:20;7.50;99.90
29003;DHT22;16102;57.138;-2.118;2023-04-24T10:06:48;7.50;99.90
29003;DHT22;16102;57.138;-2.118;2023-04-24T10:09:17;7.50;99.90
29003;DHT22;16102;57.138;-2.118;2023-04-24T10:11:50;7.40;99.90
29003;DHT22;16102;57.138;-2.118;2023-04-24T10:14:19;7.30;99.90
29003;DHT22;16102;57.138;-2.118;2023-04-24T10:16:52;7.20;99.90
29003;DHT22;16102;57.138;-2.118;2023-04-24T10:19:20;7.30;99.90
29003;DHT22;16102;57.138;-2.118;2023-04-24T10:21:47;7.40;99.90
29003;DHT22;16102;57.138;-2.118;2023-04-24T10:24:16;7.40;99.90
29003;DHT22;16102;57.138;-2.118;2023-04-24T10:26:44;7.50;99.90
29003;DHT22;16102;57.138;-2.118;2023-04-24T10:29:13;7.60;99.90
29003;DHT22;16102;57.138;-2.118;2023-04-24T10:31:42;7.70;99.90
29003;DHT22;16102;57.138;-2.118;2023-04-24T10:34:12;7.70;99.90
29003;DHT22;16102;57.138;-2.118;2023-04-24T10:36:43;7.80;99.90
29003;DHT22;16102;57.138;-2.118;2023-04-24T10:39:13;8.00;99.90
29003;DHT22;16102;57.138;-2.118;2023-04-24T10:41:44;8.00;99.90
29003;DHT22;16102;57.138;-2.118;2023-04-24T10:44:16;8.00;99.90
29003;DHT22;16102;57.138;-2.118;2023-04-24T10:46:45;8.30;99.90
29003;DHT22;16102;57.138;-2.118;2023-04-24T10:49:12;8.70;99.90
29003;DHT22;16102;57.138;-2.118;2023-04-24T10:51:52;9.10;99.90
29003;DHT22;16102;57.138;-2.118;2023-04-24T10:54:34;9.10;99.90
29003;DHT22;16102;57.138;-2.118;2023-04-24T11:00:09;9.10;99.90
29003;DHT22;16102;57.138;-2.118;2023-04-24T11:02:38;9.00;99.90
29003;DHT22;16102;57.138;-2.118;2023-04-24T11:05:05;9.00;99.90
29003;DHT22;16102;57.138;-2.118;2023-04-24T11:19:01;8.80;99.90
29003;DHT22;16102;57.138;-2.118;2023-04-24T11:21:48;8.80;99.90
29003;DHT22;16102;57.138;-2.118;2023-04-24T11:35:18;9.50;99.90
29003;DHT22;16102;57.138;-2.118;2023-04-24T11:37:50;9.20;99.90
29003;DHT22;16102;57.138;-2.118;2023-04-24T11:40:21;9.50;99.90
29003;DHT22;16102;57.138;-2.118;2023-04-24T11:42:53;9.00;99.90
29003;DHT22;16102;57.138;-2.118;2023-04-24T11:45:25;8.50;99.90
29003;DHT22;16102;57.138;-2.118;2023-04-24T11:47:53;8.30;99.90
29003;DHT22;16102;57.138;-2.118;2023-04-24T11:50:22;8.30;99.90
29003;DHT22;16102;57.138;-2.118;2023-04-24T11:52:50;8.40;99.90
29003;DHT22;16102;57.138;-2.118;2023-04-24T11:57:46;8.80;99.90
29003;DHT22;16102;57.138;-2.118;2023-04-24T12:00:18;8.90;99.90
29003;DHT22;16102;57.138;-2.118;2023-04-24T12:02:46;9.30;99.90
29003;DHT22;16102;57.138;-2.118;2023-04-24T12:05:25;9.40;99.90
29003;DHT22;16102;57.138;-2.118;2023-04-24T12:07:53;9.30;99.90
29003;DHT22;16102;57.138;-2.118;2023-04-24T12:10:24;8.90;99.90
29003;DHT22;16102;57.138;-2.118;2023-04-24T12:12:52;8.20;99.90
29003;DHT22;16102;57.138;-2.118;2023-04-24T12:15:20;7.70;99.90
29003;DHT22;16102;57.138;-2.118;2023-04-24T12:17:49;7.10;99.90
29003;DHT22;16102;57.138;-2.118;2023-04-24T12:20:17;6.90;99.90
29003;DHT22;16102;57.138;-2.118;2023-04-24T12:22:52;7.20;99.90
29003;DHT22;16102;57.138;-2.118;2023-04-24T12:25:26;7.60;99.90
29003;DHT22;16102;57.138;-2.118;2023-04-24T12:27:55;8.10;99.90
29003;DHT22;16102;57.138;-2.118;2023-04-24T12:30:27;8.50;99.90
29003;DHT22;16102;57.138;-2.118;2023-04-24T12:32:58;9.10;99.90
29003;DHT22;16102;57.138;-2.118;2023-04-24T12:35:28;9.60;99.90
29003;DHT22;16102;57.138;-2.118;2023-04-24T12:37:55;9.20;99.90
29003;DHT22;16102;57.138;-2.118;2023-04-24T12:40:25;8.80;99.90
29003;DHT22;16102;57.138;-2.118;2023-04-24T12:42:52;8.80;99.90
29003;DHT22;16102;57.138;-2.118;2023-04-24T12:45:21;8.70;99.90
29003;DHT22;16102;57.138;-2.118;2023-04-24T12:47:50;8.50;99.90
29003;DHT22;16102;57.138;-2.118;2023-04-24T12:50:17;8.00;99.90
29003;DHT22;16102;57.138;-2.118;2023-04-24T12:52:44;7.70;99.90
29003;DHT22;16102;57.138;-2.118;2023-04-24T12:55:12;7.80;99.90
29003;DHT22;16102;57.138;-2.118;2023-04-24T12:57:39;8.00;99.90
29003;DHT22;16102;57.138;-2.118;2023-04-24T13:00:07;8.40;99.90
29003;DHT22;16102;57.138;-2.118;2023-04-24T13:02:35;8.20;99.90
29003;DHT22;16102;57.138;-2.118;2023-04-24T13:05:03;8.50;99.90
29003;DHT22;16102;57.138;-2.118;2023-04-24T13:07:30;8.90;99.90
29003;DHT22;16102;57.138;-2.118;2023-04-24T13:09:57;9.30;99.90
29003;DHT22;16102;57.138;-2.118;2023-04-24T13:12:25;9.50;99.90
29003;DHT22;16102;57.138;-2.118;2023-04-24T13:14:53;10.00;99.90
29003;DHT22;16102;57.138;-2.118;2023-04-24T13:17:20;9.90;99.90
29003;DHT22;16102;57.138;-2.118;2023-04-24T13:19:49;9.50;99.90
29003;DHT22;16102;57.138;-2.118;2023-04-24T13:22:18;8.70;99.90
29003;DHT22;16102;57.138;-2.118;2023-04-24T13:24:48;8.70;99.90
29003;DHT22;16102;57.138;-2.118;2023-04-24T13:27:18;8.30;99.90
29003;DHT22;16102;57.138;-2.118;2023-04-24T13:29:45;8.40;99.90
29003;DHT22;16102;57.138;-2.118;2023-04-24T13:32:12;8.60;99.90
29003;DHT22;16102;57.138;-2.118;2023-04-24T13:34:39;8.60;99.90
29003;DHT22;16102;57.138;-2.118;2023-04-24T13:37:06;8.90;99.90
29003;DHT22;16102;57.138;-2.118;2023-04-24T13:39:35;9.20;99.90
29003;DHT22;16102;57.138;-2.118;2023-04-24T13:42:02;9.80;99.90
29003;DHT22;16102;57.138;-2.118;2023-04-24T13:44:30;10.50;99.90
29003;DHT22;16102;57.138;-2.118;2023-04-24T13:46:58;10.40;99.90
29003;DHT22;16102;57.138;-2.118;2023-04-24T13:49:26;9.60;99.90
29003;DHT22;16102;57.138;-2.118;2023-04-24T13:51:54;10.10;99.90
29003;DHT22;16102;57.138;-2.118;2023-04-24T13:54:22;10.40;99.90
29003;DHT22;16102;57.138;-2.118;2023-04-24T13:56:52;9.70;99.90
29003;DHT22;16102;57.138;-2.118;2023-04-24T13:59:20;8.60;99.90
29003;DHT22;16102;57.138;-2.118;2023-04-24T14:01:48;7.90;99.90
29003;DHT22;16102;57.138;-2.118;2023-04-24T14:04:16;7.90;99.90
29003;DHT22;16102;57.138;-2.118;2023-04-24T14:06:43;7.80;99.90
29003;DHT22;16102;57.138;-2.118;2023-04-24T14:09:11;8.60;99.90
29003;DHT22;16102;57.138;-2.118;2023-04-24T14:11:38;9.70;99.90
29003;DHT22;16102;57.138;-2.118;2023-04-24T14:14:05;10.20;99.90
29003;DHT22;16102;57.138;-2.118;2023-04-24T14:16:32;9.10;99.90
29003;DHT22;16102;57.138;-2.118;2023-04-24T14:18:59;8.60;99.90
29003;DHT22;16102;57.138;-2.118;2023-04-24T14:21:26;8.80;99.90
29003;DHT22;16102;57.138;-2.118;2023-04-24T14:23:53;8.80;99.90
29003;DHT22;16102;57.138;-2.118;2023-04-24T14:26:20;8.50;99.90
29003;DHT22;16102;57.138;-2.118;2023-04-24T14:28:47;8.30;99.90
29003;DHT22;16102;57.138;-2.118;2023-04-24T14:31:14;8.40;99.90
29003;DHT22;16102;57.138;-2.118;2023-04-24T14:33:41;8.60;99.90
29003;DHT22;16102;57.138;-2.118;2023-04-24T14:36:08;8.70;99.90
29003;DHT22;16102;57.138;-2.118;2023-04-24T14:38:36;9.70;99.90
29003;DHT22;16102;57.138;-2.118;2023-04-24T14:41:03;11.20;99.90
29003;DHT22;16102;57.138;-2.118;2023-04-24T14:43:39;12.30;99.90
29003;DHT22;16102;57.138;-2.118;2023-04-24T14:46:07;13.60;99.90
29003;DHT22;16102;57.138;-2.118;2023-04-24T14:48:33;14.00;99.90
29003;DHT22;16102;57.138;-2.118;2023-04-24T14:51:01;14.20;99.90
29003;DHT22;16102;57.138;-2.118;2023-04-24T14:53:28;13.20;99.90
29003;DHT22;16102;57.138;-2.118;2023-04-24T14:55:54;11.60;99.90
29003;DHT22;16102;57.138;-2.118;2023-04-24T14:58:21;10.60;99.90
29003;DHT22;16102;57.138;-2.118;2023-04-24T15:00:48;11.20;99.90
29003;DHT22;16102;57.138;-2.118;2023-04-24T15:03:19;11.90;99.90
29003;DHT22;16102;57.138;-2.118;2023-04-24T15:05:47;11.50;99.90
29003;DHT22;16102;57.138;-2.118;2023-04-24T15:08:14;10.80;99.90
29003;DHT22;16102;57.138;-2.118;2023-04-24T15:10:41;10.30;99.90
29003;DHT22;16102;57.138;-2.118;2023-04-24T15:13:08;9.60;99.90
29003;DHT22;16102;57.138;-2.118;2023-04-24T15:15:35;9.10;99.90
29003;DHT22;16102;57.138;-2.118;2023-04-24T15:18:04;9.30;99.90
29003;DHT22;16102;57.138;-2.118;2023-04-24T15:20:33;10.70;99.90
29003;DHT22;16102;57.138;-2.118;2023-04-24T15:23:03;11.90;99.90
29003;DHT22;16102;57.138;-2.118;2023-04-24T15:25:30;12.60;99.90
29003;DHT22;16102;57.138;-2.118;2023-04-24T15:27:58;13.00;99.90
29003;DHT22;16102;57.138;-2.118;2023-04-24T15:30:26;12.70;99.90
29003;DHT22;16102;57.138;-2.118;2023-04-24T15:32:53;11.20;99.90
29003;DHT22;16102;57.138;-2.118;2023-04-24T15:35:20;8.20;99.90
29003;DHT22;16102;57.138;-2.118;2023-04-24T15:37:47;7.60;99.90
29003;DHT22;16102;57.138;-2.118;2023-04-24T15:40:14;7.40;99.90
29003;DHT22;16102;57.138;-2.118;2023-04-24T15:42:42;8.10;1.00
29003;DHT22;16102;57.138;-2.118;2023-04-24T15:45:10;8.20;99.90
29003;DHT22;16102;57.138;-2.118;2023-04-24T15:47:37;7.80;99.90
29003;DHT22;16102;57.138;-2.118;2023-04-24T15:50:05;8.40;99.90
29003;DHT22;16102;57.138;-2.118;2023-04-24T15:52:36;9.10;99.90
29003;DHT22;16102;57.138;-2.118;2023-04-24T15:55:04;9.40;99.90
29003;DHT22;16102;57.138;-2.118;2023-04-24T15:57:31;9.20;99.90
29003;DHT22;16102;57.138;-2.118;2023-04-24T15:59:58;9.20;99.90
29003;DHT22;16102;57.138;-2.118;2023-04-24T16:02:26;9.30;99.90
29003;DHT22;16102;57.138;-2.118;2023-04-24T16:04:53;9.60;99.90
29003;DHT22;16102;57.138;-2.118;2023-04-24T16:07:20;9.30;99.90
29003;DHT22;16102;57.138;-2.118;2023-04-24T16:09:47;9.70;99.90
29003;DHT22;16102;57.138;-2.118;2023-04-24T16:12:14;10.30;99.90
29003;DHT22;16102;57.138;-2.118;2023-04-24T16:14:41;10.70;99.90
29003;DHT22;16102;57.138;-2.118;2023-04-24T16:17:08;10.20;99.90
29003;DHT22;16102;57.138;-2.118;2023-04-24T16:19:35;9.60;99.90
29003;DHT22;16102;57.138;-2.118;2023-04-24T16:22:03;8.50;99.90
29003;DHT22;16102;57.138;-2.118;2023-04-24T16:24:30;8.10;99.90
29003;DHT22;16102;57.138;-2.118;2023-04-24T16:26:57;8.00;99.90
29003;DHT22;16102;57.138;-2.118;2023-04-24T16:29:24;8.20;99.90
29003;DHT22;16102;57.138;-2.118;2023-04-24T16:31:51;8.40;99.90
29003;DHT22;16102;57.138;-2.118;2023-04-24T16:34:18;8.40;99.90
29003;DHT22;16102;57.138;-2.118;2023-04-24T16:36:45;8.80;99.90
29003;DHT22;16102;57.138;-2.118;2023-04-24T16:39:12;9.10;99.90
29003;DHT22;16102;57.138;-2.118;2023-04-24T16:41:39;9.00;99.90
29003;DHT22;16102;57.138;-2.118;2023-04-24T16:44:06;9.40;99.90
29003;DHT22;16102;57.138;-2.118;2023-04-24T16:46:33;9.70;99.90
29003;DHT22;16102;57.138;-2.118;2023-04-24T16:49:01;9.90;99.90
29003;DHT22;16102;57.138;-2.118;2023-04-24T16:51:27;9.60;99.90
29003;DHT22;16102;57.138;-2.118;2023-04-24T16:53:54;9.80;99.90
29003;DHT22;16102;57.138;-2.118;2023-04-24T16:56:22;9.50;99.90
29003;DHT22;16102;57.138;-2.118;2023-04-24T16:58:49;9.60;99.90
29003;DHT22;16102;57.138;-2.118;2023-04-24T17:01:16;10.10;99.90
29003;DHT22;16102;57.138;-2.118;2023-04-24T17:03:44;10.40;99.90
29003;DHT22;16102;57.138;-2.118;2023-04-24T17:06:12;10.70;99.90
29003;DHT22;16102;57.138;-2.118;2023-04-24T17:08:39;10.70;99.90
29003;DHT22;16102;57.138;-2.118;2023-04-24T17:11:06;10.50;99.90
29003;DHT22;16102;57.138;-2.118;2023-04-24T17:13:33;9.90;99.90
29003;DHT22;16102;57.138;-2.118;2023-04-24T17:16:00;9.20;99.90
29003;DHT22;16102;57.138;-2.118;2023-04-24T17:18:27;8.40;99.90
29003;DHT22;16102;57.138;-2.118;2023-04-24T17:20:54;7.90;99.90
29003;DHT22;16102;57.138;-2.118;2023-04-24T17:23:21;7.70;99.90
29003;DHT22;16102;57.138;-2.118;2023-04-24T17:25:48;7.60;99.90
29003;DHT22;16102;57.138;-2.118;2023-04-24T17:28:26;7.70;99.90
29003;DHT22;16102;57.138;-2.118;2023-04-24T17:30:54;8.00;99.90
29003;DHT22;16102;57.138;-2.118;2023-04-24T17:33:24;8.20;99.90
29003;DHT22;16102;57.138;-2.118;2023-04-24T17:35:52;8.10;99.90
29003;DHT22;16102;57.138;-2.118;2023-04-24T17:38:19;8.10;99.90
29003;DHT22;16102;57.138;-2.118;2023-04-24T17:40:46;8.10;99.90
29003;DHT22;16102;57.138;-2.118;2023-04-24T17:43:13;8.10;99.90
29003;DHT22;16102;57.138;-2.118;2023-04-24T17:45:47;8.60;99.90
29003;DHT22;16102;57.138;-2.118;2023-04-24T17:48:15;8.60;99.90
29003;DHT22;16102;57.138;-2.118;2023-04-24T17:50:43;8.50;99.90
29003;DHT22;16102;57.138;-2.118;2023-04-24T17:53:10;7.60;99.90
29003;DHT22;16102;57.138;-2.118;2023-04-24T17:55:38;7.30;99.90
29003;DHT22;16102;57.138;-2.118;2023-04-24T17:58:05;6.80;99.90
29003;DHT22;16102;57.138;-2.118;2023-04-24T18:00:32;6.60;99.90
29003;DHT22;16102;57.138;-2.118;2023-04-24T18:03:01;6.90;99.90
29003;DHT22;16102;57.138;-2.118;2023-04-24T18:05:30;7.00;99.90
29003;DHT22;16102;57.138;-2.118;2023-04-24T18:07:58;7.10;99.90
29003;DHT22;16102;57.138;-2.118;2023-04-24T18:10:26;7.10;99.90
29003;DHT22;16102;57.138;-2.118;2023-04-24T18:12:53;7.20;99.90
29003;DHT22;16102;57.138;-2.118;2023-04-24T18:15:20;7.50;99.90
29003;DHT22;16102;57.138;-2.118;2023-04-24T18:17:47;7.70;99.90
29003;DHT22;16102;57.138;-2.118;2023-04-24T18:20:16;8.00;99.90
29003;DHT22;16102;57.138;-2.118;2023-04-24T18:22:44;8.00;99.90
29003;DHT22;16102;57.138;-2.118;2023-04-24T18:25:12;8.10;99.90
29003;DHT22;16102;57.138;-2.118;2023-04-24T18:27:40;8.10;99.90
29003;DHT22;16102;57.138;-2.118;2023-04-24T18:30:08;8.10;99.90
29003;DHT22;16102;57.138;-2.118;2023-04-24T18:32:39;8.10;99.90
29003;DHT22;16102;57.138;-2.118;2023-04-24T18:35:07;8.20;99.90
29003;DHT22;16102;57.138;-2.118;2023-04-24T18:37:34;8.30;99.90
29003;DHT22;16102;57.138;-2.118;2023-04-24T18:40:01;7.90;99.90
29003;DHT22;16102;57.138;-2.118;2023-04-24T18:42:29;7.80;99.90
29003;DHT22;16102;57.138;-2.118;2023-04-24T18:44:56;7.60;99.90
29003;DHT22;16102;57.138;-2.118;2023-04-24T18:47:27;7.60;99.90
29003;DHT22;16102;57.138;-2.118;2023-04-24T18:49:54;7.70;99.90
29003;DHT22;16102;57.138;-2.118;2023-04-24T18:52:22;7.80;99.90
29003;DHT22;16102;57.138;-2.118;2023-04-24T18:54:50;7.80;99.90
29003;DHT22;16102;57.138;-2.118;2023-04-24T18:57:17;7.50;99.90
29003;DHT22;16102;57.138;-2.118;2023-04-24T18:59:44;7.50;99.90
29003;DHT22;16102;57.138;-2.118;2023-04-24T19:02:11;7.10;99.90
29003;DHT22;16102;57.138;-2.118;2023-04-24T19:04:38;6.90;99.90
29003;DHT22;16102;57.138;-2.118;2023-04-24T19:07:06;6.60;99.90
29003;DHT22;16102;57.138;-2.118;2023-04-24T19:09:33;6.30;99.90
29003;DHT22;16102;57.138;-2.118;2023-04-24T19:12:00;5.90;99.90
29003;DHT22;16102;57.138;-2.118;2023-04-24T19:14:27;5.50;1.00
29003;DHT22;16102;57.138;-2.118;2023-04-24T19:16:54;5.30;1.00
29003;DHT22;16102;57.138;-2.118;2023-04-24T19:19:21;5.20;1.00
29003;DHT22;16102;57.138;-2.118;2023-04-24T19:21:49;5.20;1.00
29003;DHT22;16102;57.138;-2.118;2023-04-24T19:24:16;5.30;1.00
29003;DHT22;16102;57.138;-2.118;2023-04-24T19:26:44;5.30;1.00
29003;DHT22;16102;57.138;-2.118;2023-04-24T19:29:12;5.40;1.00
29003;DHT22;16102;57.138;-2.118;2023-04-24T19:31:38;5.40;1.00
29003;DHT22;16102;57.138;-2.118;2023-04-24T19:34:06;5.40;1.00
29003;DHT22;16102;57.138;-2.118;2023-04-24T19:36:33;5.40;1.00
29003;DHT22;16102;57.138;-2.118;2023-04-24T19:39:00;5.40;1.00
29003;DHT22;16102;57.138;-2.118;2023-04-24T19:41:27;5.20;1.00
29003;DHT22;16102;57.138;-2.118;2023-04-24T19:43:54;5.20;1.00
29003;DHT22;16102;57.138;-2.118;2023-04-24T19:46:21;5.30;1.00
29003;DHT22;16102;57.138;-2.118;2023-04-24T19:48:48;5.30;1.00
29003;DHT22;16102;57.138;-2.118;2023-04-24T19:51:15;5.30;1.00
29003;DHT22;16102;57.138;-2.118;2023-04-24T19:53:42;5.30;1.00
29003;DHT22;16102;57.138;-2.118;2023-04-24T19:56:10;5.30;1.00
29003;DHT22;16102;57.138;-2.118;2023-04-24T19:58:37;5.30;1.00
29003;DHT22;16102;57.138;-2.118;2023-04-24T20:01:04;5.40;1.00
29003;DHT22;16102;57.138;-2.118;2023-04-24T20:03:31;5.40;1.00
29003;DHT22;16102;57.138;-2.118;2023-04-24T20:06:00;5.30;1.00
29003;DHT22;16102;57.138;-2.118;2023-04-24T20:08:27;5.30;1.00
29003;DHT22;16102;57.138;-2.118;2023-04-24T20:10:54;5.30;1.00
29003;DHT22;16102;57.138;-2.118;2023-04-24T20:13:24;5.30;1.00
29003;DHT22;16102;57.138;-2.118;2023-04-24T20:15:53;5.30;1.00
29003;DHT22;16102;57.138;-2.118;2023-04-24T20:18:20;5.30;1.00
29003;DHT22;16102;57.138;-2.118;2023-04-24T20:20:52;5.30;1.00
29003;DHT22;16102;57.138;-2.118;2023-04-24T20:23:22;5.30;1.00
29003;DHT22;16102;57.138;-2.118;2023-04-24T20:25:49;5.30;1.00
29003;DHT22;16102;57.138;-2.118;2023-04-24T20:28:18;5.30;1.00
29003;DHT22;16102;57.138;-2.118;2023-04-24T20:30:45;5.30;1.00
29003;DHT22;16102;57.138;-2.118;2023-04-24T20:33:12;5.30;1.00
29003;DHT22;16102;57.138;-2.118;2023-04-24T20:35:39;5.30;1.00
29003;DHT22;16102;57.138;-2.118;2023-04-24T20:38:06;5.30;1.00
29003;DHT22;16102;57.138;-2.118;2023-04-24T20:40:33;5.40;1.00
29003;DHT22;16102;57.138;-2.118;2023-04-24T20:43:01;5.30;1.00
29003;DHT22;16102;57.138;-2.118;2023-04-24T20:45:28;5.30;1.00
29003;DHT22;16102;57.138;-2.118;2023-04-24T20:47:55;5.30;1.00
29003;DHT22;16102;57.138;-2.118;2023-04-24T20:50:22;5.30;1.00
29003;DHT22;16102;57.138;-2.118;2023-04-24T20:52:50;5.30;1.00
29003;DHT22;16102;57.138;-2.118;2023-04-24T20:55:17;5.30;1.00
29003;DHT22;16102;57.138;-2.118;2023-04-24T20:57:44;5.20;1.00
29003;DHT22;16102;57.138;-2.118;2023-04-24T21:00:12;5.20;1.00
29003;DHT22;16102;57.138;-2.118;2023-04-24T21:02:39;5.20;1.00
29003;DHT22;16102;57.138;-2.118;2023-04-24T21:05:06;5.20;1.00
29003;DHT22;16102;57.138;-2.118;2023-04-24T21:07:34;5.20;1.00
29003;DHT22;16102;57.138;-2.118;2023-04-24T21:10:01;5.20;1.00